ADDS TAF Board (Experimental) INFO Settings
IDs: Format: Expanded Condensed

KPIT - Pittsburgh Intl, PA, US

Issued at 0257 UTC 14 Feb 2016
Updated at: 0349 UTC 14 Feb 2016
Time0329Z 14/04Z 14/05Z 14/06Z 14/07Z 14/08Z 14/09Z 14/10Z 14/11Z 14/12Z 14/13Z 14/14Z 14/15Z 14/16Z
Type OBS PRVL PRVL PRVL PRVL PRVL PRVL PRVL PRVL PRVL PRVL PRVL PRVL PRVL
VIS 10 >6 >6 >6 >6 >6 >6 >6 >6 >6 >6 >6 >6 >6
CIG 27 -- -- -- -- -- -- -- -- -- -- -- -- --
Cover BKN SCT SCT SCT SCT SCT SCT SCT SCT SCT SCT SCT SCT SCT
FltCat MVFR VFR VFR VFR VFR VFR VFR VFR VFR VFR VFR VFR VFR VFR
WX -- -- -- -- -- -- -- -- -- -- -- -- -- --
WDir 260 260 260 260 260 260 260 260 260 260 260 260 150 150
WSpd 4 4 4 4 4 4 4 4 4 4 4 4 5 5
WGst -- -- -- -- -- -- -- -- -- -- -- -- -- --
R10/28
XWnd -1 -1 -1 -1 -1 -1 -1 -1 -1 -1 -1 -1 -4 -4
HWnd -4 -4 -4 -4 -4 -4 -4 -4 -4 -4 -4 -4 3 3
R14/32
XWnd -3 -3 -3 -3 -3 -3 -3 -3 -3 -3 -3 -3 -1 -1
HWnd -2 -2 -2 -2 -2 -2 -2 -2 -2 -2 -2 -2 5 5

NOTE: TEMPO conditions in [brackets]. Keep in mind TEMPO conditions might be better (lower impact) than prevailing conditions.

Raw TAF
KPIT 140257Z 1403/1506 26004KT P6SM SCT035
  FM141500 15005KT P6SM SCT040
  FM150000 10005KT P6SM BKN100


Raw METAR
KPIT 140329Z 26004KT 10SM BKN027 BKN033 M16/M19 A3040 RMK AO2 T11611194
KPIT 140251Z 27004KT 10SM FEW033 SCT038 M16/M19 A3040 RMK AO2 SLP331 T11561189 51003
KPIT 140151Z 27004KT 10SM BKN045 M15/M18 A3040 RMK AO2 SLP331 T11501183
KPIT 140051Z 27004KT 10SM FEW055 M14/M19 A3040 RMK AO2 SLP330 T11441189

METAR Board
Radar Display
Forecast Discussion

TAF Board Legend

Potential Impact
Threat None Slight Moderate High
Visibility (sm) ≥5.1 5.1>X≥3 3>X≥1 <1
Ceiling (100 ft) ≥30.1 30.1>X≥10 10>X≥5 <5
Wind Speed (kt) <10 10≤X<20 20≤X<30 ≥30
Wind Gust (kt) <15 15≤X<25 25≤X<35 ≥35
Weather No Wx Reported VCTS,-TS,-FZRA,SN TS,FZRA +TS,+FZRA,+SN